createdAt,value
2022-09-05T00:04:23.857Z,14.8
2022-09-05T00:09:04.233Z,14.7
2022-09-05T00:14:02.126Z,14.6
2022-09-05T00:21:08.202Z,14.6
2022-09-05T00:24:23.732Z,14.5
2022-09-05T00:28:56.042Z,14.4
2022-09-05T00:33:54.125Z,14.4
2022-09-05T00:38:52.068Z,14.4
2022-09-05T00:43:50.239Z,14.4
2022-09-05T00:48:48.290Z,14.2
2022-09-05T00:53:46.496Z,14.2
2022-09-05T00:58:44.418Z,14.3
2022-09-05T01:03:42.516Z,14.3
2022-09-05T01:08:40.477Z,14.2
2022-09-05T01:13:38.626Z,14.2
2022-09-05T01:18:36.563Z,14.1
2022-09-05T01:23:34.520Z,14.1
2022-09-05T01:28:57.910Z,14.1
2022-09-05T01:33:30.475Z,14
2022-09-05T01:38:28.547Z,14.1
2022-09-05T01:43:26.640Z,14.1
2022-09-05T01:48:24.966Z,14
2022-09-05T01:53:22.688Z,13.9
2022-09-05T01:58:20.738Z,13.8
2022-09-05T02:03:18.606Z,13.7
2022-09-05T02:08:16.536Z,13.6
2022-09-05T02:13:14.675Z,13.6
2022-09-05T02:18:12.719Z,13.6
2022-09-05T02:23:27.428Z,13.5
2022-09-05T02:28:08.684Z,13.3
2022-09-05T02:33:06.530Z,13.2
2022-09-05T02:39:51.931Z,13.4
2022-09-05T02:45:15.907Z,13.5
2022-09-05T02:48:04.934Z,13.5
2022-09-05T02:54:27.729Z,13.4
2022-09-05T02:58:05.012Z,13.2
2022-09-05T03:02:54.898Z,13.2
2022-09-05T03:07:52.974Z,13.3
2022-09-05T03:12:50.924Z,13.1
2022-09-05T03:17:48.980Z,13.1
2022-09-05T03:22:46.941Z,13.3
2022-09-05T03:27:45.048Z,13.1
2022-09-05T03:32:43.108Z,13.2
2022-09-05T03:37:41.116Z,13.3
2022-09-05T03:42:39.428Z,13.4
2022-09-05T03:47:37.639Z,13.6
2022-09-05T03:56:36.910Z,13.6
2022-09-05T03:57:41.317Z,13.7
2022-09-05T04:03:12.958Z,13.8
2022-09-05T04:08:12.537Z,13.8
2022-09-05T04:12:28.316Z,13.9
2022-09-05T04:17:26.545Z,13.9
2022-09-05T04:22:24.514Z,14
2022-09-05T04:27:24.370Z,14.1
2022-09-05T04:32:21.088Z,14.3
2022-09-05T04:37:19.368Z,14.7
2022-09-05T04:42:17.973Z,15.6
2022-09-05T04:47:16.760Z,16.1
2022-09-05T04:52:19.656Z,16.7
2022-09-05T04:57:14.659Z,17.1
2022-09-05T05:06:07.313Z,17
2022-09-05T05:07:10.663Z,17.4
2022-09-05T05:14:24.635Z,18
2022-09-05T05:18:04.365Z,18.6
2022-09-05T05:22:06.348Z,18.7
2022-09-05T05:27:04.745Z,19.3
2022-09-05T05:32:05.561Z,22.7
2022-09-05T05:37:05.713Z,24
2022-09-05T05:42:19.485Z,24.5
2022-09-05T05:47:03.692Z,26
2022-09-05T05:52:03.147Z,26
2022-09-05T05:56:59.422Z,25.4
2022-09-05T06:01:58.549Z,25.1
2022-09-05T06:06:53.912Z,24.3
2022-09-05T06:14:54.200Z,28.5
2022-09-05T06:16:55.682Z,28.8
2022-09-05T06:22:08.141Z,28.4
2022-09-05T06:26:52.988Z,29.5
2022-09-05T06:31:50.614Z,29.6
2022-09-05T06:36:49.603Z,30.4
2022-09-05T06:41:48.137Z,30.8
2022-09-05T06:46:50.656Z,32
2022-09-05T06:51:46.744Z,33.2
2022-09-05T06:56:41.248Z,27.8
2022-09-05T07:01:44.807Z,24.5
2022-09-05T07:06:41.421Z,22.5
2022-09-05T07:11:29.921Z,22.4
2022-09-05T07:16:37.012Z,26.9
2022-09-05T07:21:30.050Z,26.1
2022-09-05T07:26:35.060Z,24.8
2022-09-05T07:31:37.817Z,25.2
2022-09-05T07:36:34.300Z,32.8
2022-09-05T07:41:32.170Z,28.3
2022-09-05T07:46:24.762Z,23.8
2022-09-05T07:53:49.802Z,22.8
2022-09-05T07:56:48.468Z,22.7
2022-09-05T08:01:17.744Z,23
2022-09-05T08:06:27.367Z,27.2
2022-09-05T08:11:22.964Z,26.1
2022-09-05T08:16:17.179Z,26.3
2022-09-05T08:21:13.160Z,24.2
2022-09-05T08:26:10.199Z,23.7
2022-09-05T08:31:13.212Z,33
2022-09-05T08:36:09.977Z,27.5
2022-09-05T08:41:06.646Z,31
2022-09-05T08:46:38.453Z,31.3
2022-09-05T08:51:05.306Z,31.2
2022-09-05T08:56:06.493Z,33.1
2022-09-05T09:01:06.821Z,36.2
2022-09-05T09:06:13.085Z,36.9
2022-09-05T09:10:58.714Z,27.5
2022-09-05T09:15:54.319Z,27.5
2022-09-05T09:20:53.956Z,33.3
2022-09-05T09:25:57.100Z,35.2
2022-09-05T09:30:50.620Z,29.3
2022-09-05T09:35:51.526Z,27.2
2022-09-05T09:40:50.191Z,29.3
2022-09-05T09:45:49.842Z,33.1
2022-09-05T09:50:52.033Z,28.8
2022-09-05T09:55:44.995Z,27.5
2022-09-05T10:00:44.819Z,29.6
2022-09-05T10:10:23.350Z,28.5
2022-09-05T10:11:15.923Z,28.3
2022-09-05T10:15:38.624Z,29.9
2022-09-05T10:20:38.029Z,29.8
2022-09-05T10:25:34.143Z,28.3
2022-09-05T10:31:20.722Z,30.6
2022-09-05T10:35:33.387Z,32.9
2022-09-05T10:40:36.222Z,35.1
2022-09-05T10:45:30.140Z,31.8
2022-09-05T10:50:22.861Z,27.6
2022-09-05T10:55:22.099Z,31.4
2022-09-05T11:02:16.019Z,32.5
2022-09-05T11:05:21.240Z,33.4
2022-09-05T11:10:15.483Z,27.9
2022-09-05T11:15:11.330Z,25.9
2022-09-05T11:20:14.530Z,29.9
2022-09-05T11:25:13.080Z,33.5
2022-09-05T11:30:10.075Z,34.5
2022-09-05T11:40:00.934Z,27.1
2022-09-05T11:40:26.852Z,29.7
2022-09-05T11:45:00.498Z,29.8
2022-09-05T11:50:03.614Z,28.4
2022-09-05T11:55:00.478Z,32.2
2022-09-05T12:00:09.292Z,36.5
2022-09-05T12:05:26.243Z,38.5
2022-09-05T12:09:58.314Z,38.7
2022-09-05T12:14:56.415Z,37.7
2022-09-05T12:19:54.507Z,38.6
2022-09-05T12:25:16.474Z,37
2022-09-05T12:29:54.379Z,37.6
2022-09-05T12:36:09.273Z,38.6
2022-09-05T12:40:44.579Z,38
2022-09-05T12:44:46.042Z,38.2
2022-09-05T12:49:38.163Z,28.9
2022-09-05T12:54:35.635Z,33.2
2022-09-05T13:02:11.305Z,35.3
2022-09-05T13:04:33.021Z,29.2
2022-09-05T13:09:29.447Z,28.5
2022-09-05T13:14:52.078Z,26.2
2022-09-05T13:19:22.288Z,25.8
2022-09-05T13:24:20.227Z,25.9
2022-09-05T13:29:18.097Z,25.5
2022-09-05T13:38:26.495Z,27.1
2022-09-05T13:39:15.747Z,26.8
2022-09-05T13:44:25.934Z,26.8
2022-09-05T13:49:30.002Z,26.7
2022-09-05T13:54:09.547Z,25.9
2022-09-05T13:59:07.214Z,25.8
2022-09-05T14:04:05.015Z,25.7
2022-09-05T14:14:00.737Z,25.5
2022-09-05T14:18:58.624Z,24.8
2022-09-05T14:23:56.727Z,24.9
2022-09-05T14:28:54.520Z,24.5
2022-09-05T14:37:37.783Z,23.9
2022-09-05T14:38:51.026Z,23.3
2022-09-05T14:43:47.505Z,22.1
2022-09-05T14:48:45.714Z,22
2022-09-05T14:53:59.188Z,21.9
2022-09-05T15:02:39.961Z,22.2
2022-09-05T15:10:07.742Z,21.9
2022-09-05T15:13:37.697Z,22.2
2022-09-05T15:18:36.089Z,22.3
2022-09-05T15:23:34.588Z,22.8
2022-09-05T15:28:32.909Z,22.3
2022-09-05T15:33:31.043Z,22.1
2022-09-05T15:38:29.303Z,21.8
2022-09-05T15:43:27.284Z,21.9
2022-09-05T15:48:26.059Z,22
2022-09-05T15:53:23.678Z,22.1
2022-09-05T15:58:21.721Z,22
2022-09-05T16:04:16.951Z,21.6
2022-09-05T16:10:44.385Z,21.1
2022-09-05T16:13:15.402Z,20.8
2022-09-05T16:20:55.792Z,20.5
2022-09-05T16:23:21.367Z,20.5
2022-09-05T16:28:09.218Z,20.4
2022-09-05T16:33:07.097Z,20
2022-09-05T16:38:04.907Z,19.5
2022-09-05T16:43:02.515Z,18.8
2022-09-05T16:48:00.302Z,18.3
2022-09-05T16:52:57.919Z,17.5
2022-09-05T16:57:55.467Z,16.7
2022-09-05T17:02:53.054Z,16.3
2022-09-05T17:07:50.637Z,15.7
2022-09-05T17:12:48.332Z,15.3
2022-09-05T17:18:18.890Z,15
2022-09-05T17:24:38.730Z,14.6
2022-09-05T17:29:22.263Z,14.3
2022-09-05T17:32:39.261Z,14.2
2022-09-05T17:37:36.992Z,13.9
2022-09-05T17:42:34.999Z,13.8
2022-09-05T17:47:35.822Z,13.6
2022-09-05T17:52:30.956Z,13.6
2022-09-05T17:57:29.079Z,13.7
2022-09-05T18:02:27.358Z,13.8
2022-09-05T18:07:25.734Z,14.3
2022-09-05T18:12:28.704Z,14.9
2022-09-05T18:17:37.128Z,14.9
2022-09-05T18:22:21.214Z,15.3
2022-09-05T18:27:30.968Z,15.4
2022-09-05T18:32:17.993Z,15.4
2022-09-05T18:37:16.250Z,15.1
2022-09-05T18:42:26.834Z,15
2022-09-05T18:47:12.775Z,14.5
2022-09-05T18:52:10.703Z,14.2
2022-09-05T18:57:27.477Z,14
2022-09-05T19:02:06.763Z,13.8
2022-09-05T19:07:06.982Z,13.7
2022-09-05T19:12:10.863Z,13.6
2022-09-05T19:17:01.287Z,13.4
2022-09-05T19:22:05.573Z,13.3
2022-09-05T19:27:07.564Z,13.1
2022-09-05T19:35:29.403Z,12.9
2022-09-05T19:37:22.383Z,12.9
2022-09-05T19:45:03.572Z,12.7
2022-09-05T19:47:32.206Z,12.6
2022-09-05T19:51:52.635Z,12.5
2022-09-05T19:56:50.819Z,12.4
2022-09-05T20:01:49.939Z,12.3
2022-09-05T20:06:48.176Z,12.4
2022-09-05T20:11:46.804Z,12.4
2022-09-05T20:16:44.553Z,12.2
2022-09-05T20:21:42.539Z,12.1
2022-09-05T20:26:40.823Z,12.1
2022-09-05T20:31:39.130Z,12
2022-09-05T20:38:36.792Z,11.9
2022-09-05T20:43:25.667Z,11.8
2022-09-05T20:47:59.601Z,11.8
2022-09-05T20:54:10.831Z,11.7
2022-09-05T20:56:29.706Z,11.7
2022-09-05T21:01:27.798Z,11.7
2022-09-05T21:06:25.941Z,11.7
2022-09-05T21:11:24.061Z,11.6
2022-09-05T21:16:22.395Z,11.5
2022-09-05T21:21:28.277Z,11.5
2022-09-05T21:26:18.608Z,11.5
2022-09-05T21:31:17.128Z,11.5
2022-09-05T21:36:15.008Z,11.5
2022-09-05T21:41:15.763Z,11.5
2022-09-05T21:47:45.625Z,11.5
2022-09-05T21:51:09.005Z,11.4
2022-09-05T21:58:29.222Z,11.5
2022-09-05T22:01:05.196Z,11.4
2022-09-05T22:06:07.079Z,11.3
2022-09-05T22:11:01.357Z,11.4
2022-09-05T22:15:59.408Z,11.4
2022-09-05T22:21:26.757Z,11.3
2022-09-05T22:25:55.476Z,11.2
2022-09-05T22:30:53.460Z,11.1
2022-09-05T22:35:51.472Z,11.1
2022-09-05T22:40:49.478Z,10.8
2022-09-05T22:45:46.976Z,10.7
2022-09-05T22:50:45.085Z,10.7
2022-09-05T22:55:42.979Z,10.6
2022-09-05T23:00:41.074Z,10.6
2022-09-05T23:05:39.194Z,10.5
2022-09-05T23:10:37.286Z,10.5
2022-09-05T23:15:35.351Z,10.4
2022-09-05T23:20:33.284Z,10.3
2022-09-05T23:25:31.436Z,10.4
2022-09-05T23:30:29.579Z,10.4
2022-09-05T23:35:27.828Z,10.5
2022-09-05T23:40:25.890Z,10.5
2022-09-05T23:45:24.044Z,10.4
2022-09-05T23:50:22.040Z,10.4
2022-09-05T23:55:20.020Z,10.3
